sensor_id;sensor_type;location;lat;lon;timestamp;P1;durP1;ratioP1;P2;durP2;ratioP2
8001;SDS011;4046;48.774;8.732;2022-07-15T00:02:13;4.57;;;4.17;;
8001;SDS011;4046;48.774;8.732;2022-07-15T00:04:39;4.60;;;4.30;;
8001;SDS011;4046;48.774;8.732;2022-07-15T00:07:05;4.07;;;3.70;;
8001;SDS011;4046;48.774;8.732;2022-07-15T00:09:31;4.57;;;4.17;;
8001;SDS011;4046;48.774;8.732;2022-07-15T00:12:16;4.30;;;3.97;;
8001;SDS011;4046;48.774;8.732;2022-07-15T00:14:42;4.40;;;4.10;;
8001;SDS011;4046;48.774;8.732;2022-07-15T00:17:09;4.70;;;4.30;;
8001;SDS011;4046;48.774;8.732;2022-07-15T00:19:35;3.63;;;3.40;;
8001;SDS011;4046;48.774;8.732;2022-07-15T00:22:01;4.27;;;3.97;;
8001;SDS011;4046;48.774;8.732;2022-07-15T00:24:28;4.73;;;4.33;;
8001;SDS011;4046;48.774;8.732;2022-07-15T00:26:54;4.70;;;4.30;;
8001;SDS011;4046;48.774;8.732;2022-07-15T00:29:22;4.83;;;4.43;;
8001;SDS011;4046;48.774;8.732;2022-07-15T00:31:48;4.20;;;3.80;;
8001;SDS011;4046;48.774;8.732;2022-07-15T00:34:14;4.60;;;4.20;;
8001;SDS011;4046;48.774;8.732;2022-07-15T00:36:39;4.63;;;4.10;;
8001;SDS011;4046;48.774;8.732;2022-07-15T00:39:05;4.20;;;3.90;;
8001;SDS011;4046;48.774;8.732;2022-07-15T00:41:35;4.47;;;3.93;;
8001;SDS011;4046;48.774;8.732;2022-07-15T00:44:02;4.83;;;4.43;;
8001;SDS011;4046;48.774;8.732;2022-07-15T00:46:28;4.90;;;4.50;;
8001;SDS011;4046;48.774;8.732;2022-07-15T00:48:55;4.00;;;3.77;;
8001;SDS011;4046;48.774;8.732;2022-07-15T00:51:20;4.63;;;4.23;;
8001;SDS011;4046;48.774;8.732;2022-07-15T00:53:46;4.43;;;4.03;;
8001;SDS011;4046;48.774;8.732;2022-07-15T00:56:13;5.00;;;4.60;;
8001;SDS011;4046;48.774;8.732;2022-07-15T00:58:41;4.27;;;3.97;;
8001;SDS011;4046;48.774;8.732;2022-07-15T01:01:09;5.07;;;4.67;;
8001;SDS011;4046;48.774;8.732;2022-07-15T01:03:36;5.40;;;4.47;;
8001;SDS011;4046;48.774;8.732;2022-07-15T01:06:02;4.10;;;3.80;;
8001;SDS011;4046;48.774;8.732;2022-07-15T01:08:28;7.20;;;4.90;;
8001;SDS011;4046;48.774;8.732;2022-07-15T01:10:54;4.87;;;4.50;;
8001;SDS011;4046;48.774;8.732;2022-07-15T01:13:20;4.90;;;4.40;;
8001;SDS011;4046;48.774;8.732;2022-07-15T01:15:47;5.40;;;3.87;;
8001;SDS011;4046;48.774;8.732;2022-07-15T01:18:14;5.07;;;4.57;;
8001;SDS011;4046;48.774;8.732;2022-07-15T01:20:40;4.73;;;4.03;;
8001;SDS011;4046;48.774;8.732;2022-07-15T01:23:07;4.67;;;4.30;;
8001;SDS011;4046;48.774;8.732;2022-07-15T01:25:32;4.67;;;4.30;;
8001;SDS011;4046;48.774;8.732;2022-07-15T01:27:58;4.60;;;4.30;;
8001;SDS011;4046;48.774;8.732;2022-07-15T01:30:24;4.53;;;4.23;;
8001;SDS011;4046;48.774;8.732;2022-07-15T01:32:50;5.90;;;4.23;;
8001;SDS011;4046;48.774;8.732;2022-07-15T01:35:17;5.00;;;4.60;;
8001;SDS011;4046;48.774;8.732;2022-07-15T01:37:43;8.70;;;4.50;;
8001;SDS011;4046;48.774;8.732;2022-07-15T01:40:10;5.60;;;5.03;;
8001;SDS011;4046;48.774;8.732;2022-07-15T01:42:36;5.57;;;4.77;;
8001;SDS011;4046;48.774;8.732;2022-07-15T01:45:04;4.63;;;4.23;;
8001;SDS011;4046;48.774;8.732;2022-07-15T01:47:31;6.50;;;5.40;;
8001;SDS011;4046;48.774;8.732;2022-07-15T01:49:58;4.93;;;4.50;;
8001;SDS011;4046;48.774;8.732;2022-07-15T01:52:24;5.23;;;4.63;;
8001;SDS011;4046;48.774;8.732;2022-07-15T01:54:50;5.27;;;4.80;;
8001;SDS011;4046;48.774;8.732;2022-07-15T01:57:19;5.70;;;4.50;;
8001;SDS011;4046;48.774;8.732;2022-07-15T01:59:45;5.80;;;4.77;;
8001;SDS011;4046;48.774;8.732;2022-07-15T02:02:10;5.40;;;4.70;;
8001;SDS011;4046;48.774;8.732;2022-07-15T02:04:36;6.60;;;4.83;;
8001;SDS011;4046;48.774;8.732;2022-07-15T02:07:02;5.07;;;4.57;;
8001;SDS011;4046;48.774;8.732;2022-07-15T02:09:32;5.50;;;4.70;;
8001;SDS011;4046;48.774;8.732;2022-07-15T02:11:58;5.63;;;4.77;;
8001;SDS011;4046;48.774;8.732;2022-07-15T02:14:24;5.47;;;5.07;;
8001;SDS011;4046;48.774;8.732;2022-07-15T02:16:50;4.83;;;4.50;;
8001;SDS011;4046;48.774;8.732;2022-07-15T02:19:16;5.10;;;4.70;;
8001;SDS011;4046;48.774;8.732;2022-07-15T02:21:42;5.23;;;4.83;;
8001;SDS011;4046;48.774;8.732;2022-07-15T02:24:07;4.93;;;4.47;;
8001;SDS011;4046;48.774;8.732;2022-07-15T02:26:33;5.83;;;5.20;;
8001;SDS011;4046;48.774;8.732;2022-07-15T02:28:59;5.57;;;5.17;;
8001;SDS011;4046;48.774;8.732;2022-07-15T02:31:25;6.27;;;4.97;;
8001;SDS011;4046;48.774;8.732;2022-07-15T02:33:50;5.17;;;4.77;;
8001;SDS011;4046;48.774;8.732;2022-07-15T02:36:16;5.70;;;5.17;;
8001;SDS011;4046;48.774;8.732;2022-07-15T02:38:42;7.20;;;5.23;;
8001;SDS011;4046;48.774;8.732;2022-07-15T02:41:08;6.00;;;5.40;;
8001;SDS011;4046;48.774;8.732;2022-07-15T02:43:37;6.40;;;5.40;;
8001;SDS011;4046;48.774;8.732;2022-07-15T02:46:03;6.70;;;6.10;;
8001;SDS011;4046;48.774;8.732;2022-07-15T02:48:29;6.50;;;5.90;;
8001;SDS011;4046;48.774;8.732;2022-07-15T02:50:54;5.67;;;5.27;;
8001;SDS011;4046;48.774;8.732;2022-07-15T02:53:20;6.30;;;5.80;;
8001;SDS011;4046;48.774;8.732;2022-07-15T02:55:49;6.00;;;5.50;;
8001;SDS011;4046;48.774;8.732;2022-07-15T02:58:14;6.13;;;5.30;;
8001;SDS011;4046;48.774;8.732;2022-07-15T03:00:40;6.17;;;5.53;;
8001;SDS011;4046;48.774;8.732;2022-07-15T03:03:06;6.53;;;5.90;;
8001;SDS011;4046;48.774;8.732;2022-07-15T03:05:32;6.10;;;5.60;;
8001;SDS011;4046;48.774;8.732;2022-07-15T03:07:57;6.33;;;5.70;;
8001;SDS011;4046;48.774;8.732;2022-07-15T03:10:23;6.90;;;5.40;;
8001;SDS011;4046;48.774;8.732;2022-07-15T03:12:49;5.57;;;5.17;;
8001;SDS011;4046;48.774;8.732;2022-07-15T03:15:14;6.40;;;5.80;;
8001;SDS011;4046;48.774;8.732;2022-07-15T03:17:40;5.83;;;5.37;;
8001;SDS011;4046;48.774;8.732;2022-07-15T03:20:06;5.70;;;5.20;;
8001;SDS011;4046;48.774;8.732;2022-07-15T03:22:33;5.50;;;5.00;;
8001;SDS011;4046;48.774;8.732;2022-07-15T03:24:59;5.93;;;5.30;;
8001;SDS011;4046;48.774;8.732;2022-07-15T03:27:25;5.50;;;5.00;;
8001;SDS011;4046;48.774;8.732;2022-07-15T03:29:50;6.33;;;5.73;;
8001;SDS011;4046;48.774;8.732;2022-07-15T03:32:16;6.30;;;5.80;;
8001;SDS011;4046;48.774;8.732;2022-07-15T03:34:44;5.80;;;5.30;;
8001;SDS011;4046;48.774;8.732;2022-07-15T03:37:10;6.53;;;5.47;;
8001;SDS011;4046;48.774;8.732;2022-07-15T03:39:36;5.73;;;5.20;;
8001;SDS011;4046;48.774;8.732;2022-07-15T03:42:02;6.23;;;5.63;;
8001;SDS011;4046;48.774;8.732;2022-07-15T03:44:28;5.53;;;5.00;;
8001;SDS011;4046;48.774;8.732;2022-07-15T03:46:54;5.73;;;5.20;;
8001;SDS011;4046;48.774;8.732;2022-07-15T03:49:20;7.10;;;5.87;;
8001;SDS011;4046;48.774;8.732;2022-07-15T03:51:46;6.20;;;5.70;;
8001;SDS011;4046;48.774;8.732;2022-07-15T03:54:12;8.07;;;5.63;;
8001;SDS011;4046;48.774;8.732;2022-07-15T03:56:37;5.77;;;5.30;;
8001;SDS011;4046;48.774;8.732;2022-07-15T03:59:03;5.00;;;4.60;;
8001;SDS011;4046;48.774;8.732;2022-07-15T04:01:30;5.37;;;4.87;;
8001;SDS011;4046;48.774;8.732;2022-07-15T04:03:56;6.13;;;5.53;;
8001;SDS011;4046;48.774;8.732;2022-07-15T04:06:22;5.00;;;4.60;;
8001;SDS011;4046;48.774;8.732;2022-07-15T04:08:49;6.43;;;5.73;;
8001;SDS011;4046;48.774;8.732;2022-07-15T04:11:15;5.67;;;4.80;;
8001;SDS011;4046;48.774;8.732;2022-07-15T04:13:42;6.43;;;5.90;;
8001;SDS011;4046;48.774;8.732;2022-07-15T04:16:08;5.70;;;4.97;;
8001;SDS011;4046;48.774;8.732;2022-07-15T04:18:36;6.27;;;5.47;;
8001;SDS011;4046;48.774;8.732;2022-07-15T04:21:02;5.63;;;5.00;;
8001;SDS011;4046;48.774;8.732;2022-07-15T04:23:27;5.30;;;4.80;;
8001;SDS011;4046;48.774;8.732;2022-07-15T04:25:53;5.70;;;5.30;;
8001;SDS011;4046;48.774;8.732;2022-07-15T04:28:20;5.30;;;4.80;;
8001;SDS011;4046;48.774;8.732;2022-07-15T04:30:46;4.93;;;4.53;;
8001;SDS011;4046;48.774;8.732;2022-07-15T04:33:13;6.07;;;5.10;;
8001;SDS011;4046;48.774;8.732;2022-07-15T04:35:39;6.07;;;5.57;;
8001;SDS011;4046;48.774;8.732;2022-07-15T04:38:05;6.57;;;5.33;;
8001;SDS011;4046;48.774;8.732;2022-07-15T04:40:31;5.80;;;5.30;;
8001;SDS011;4046;48.774;8.732;2022-07-15T04:42:58;5.80;;;5.20;;
8001;SDS011;4046;48.774;8.732;2022-07-15T04:45:25;5.93;;;5.40;;
8001;SDS011;4046;48.774;8.732;2022-07-15T04:47:51;5.43;;;5.03;;
8001;SDS011;4046;48.774;8.732;2022-07-15T04:50:17;5.20;;;4.77;;
8001;SDS011;4046;48.774;8.732;2022-07-15T04:53:02;6.17;;;5.47;;
8001;SDS011;4046;48.774;8.732;2022-07-15T04:55:29;6.00;;;5.27;;
8001;SDS011;4046;48.774;8.732;2022-07-15T04:57:55;7.80;;;6.00;;
8001;SDS011;4046;48.774;8.732;2022-07-15T05:00:21;5.73;;;5.20;;
8001;SDS011;4046;48.774;8.732;2022-07-15T05:02:47;8.50;;;5.60;;
8001;SDS011;4046;48.774;8.732;2022-07-15T05:05:13;5.90;;;5.40;;
8001;SDS011;4046;48.774;8.732;2022-07-15T05:07:39;5.30;;;4.83;;
8001;SDS011;4046;48.774;8.732;2022-07-15T05:10:05;6.90;;;5.87;;
8001;SDS011;4046;48.774;8.732;2022-07-15T05:12:31;6.80;;;6.20;;
8001;SDS011;4046;48.774;8.732;2022-07-15T05:14:57;6.43;;;5.77;;
8001;SDS011;4046;48.774;8.732;2022-07-15T05:17:23;6.80;;;6.10;;
8001;SDS011;4046;48.774;8.732;2022-07-15T05:19:51;6.53;;;5.90;;
8001;SDS011;4046;48.774;8.732;2022-07-15T05:22:17;7.50;;;5.90;;
8001;SDS011;4046;48.774;8.732;2022-07-15T05:24:44;9.67;;;6.60;;
8001;SDS011;4046;48.774;8.732;2022-07-15T05:27:10;15.73;;;7.00;;
8001;SDS011;4046;48.774;8.732;2022-07-15T05:29:36;9.40;;;6.00;;
8001;SDS011;4046;48.774;8.732;2022-07-15T05:32:02;6.60;;;5.90;;
8001;SDS011;4046;48.774;8.732;2022-07-15T05:34:28;7.97;;;6.40;;
8001;SDS011;4046;48.774;8.732;2022-07-15T05:36:53;9.63;;;5.77;;
8001;SDS011;4046;48.774;8.732;2022-07-15T05:39:19;8.57;;;6.60;;
8001;SDS011;4046;48.774;8.732;2022-07-15T05:41:45;7.10;;;5.23;;
8001;SDS011;4046;48.774;8.732;2022-07-15T05:44:11;5.70;;;5.30;;
8001;SDS011;4046;48.774;8.732;2022-07-15T05:46:37;6.00;;;5.40;;
8001;SDS011;4046;48.774;8.732;2022-07-15T05:49:03;5.23;;;4.73;;
8001;SDS011;4046;48.774;8.732;2022-07-15T05:51:28;5.50;;;5.00;;
8001;SDS011;4046;48.774;8.732;2022-07-15T05:53:54;5.53;;;4.90;;
8001;SDS011;4046;48.774;8.732;2022-07-15T05:56:20;4.37;;;4.07;;
8001;SDS011;4046;48.774;8.732;2022-07-15T05:58:47;5.30;;;4.80;;
8001;SDS011;4046;48.774;8.732;2022-07-15T06:01:13;8.20;;;4.90;;
8001;SDS011;4046;48.774;8.732;2022-07-15T06:03:39;7.53;;;5.67;;
8001;SDS011;4046;48.774;8.732;2022-07-15T06:06:05;4.70;;;4.27;;
8001;SDS011;4046;48.774;8.732;2022-07-15T06:08:31;5.30;;;4.90;;
8001;SDS011;4046;48.774;8.732;2022-07-15T06:10:58;6.47;;;5.00;;
8001;SDS011;4046;48.774;8.732;2022-07-15T06:13:24;4.87;;;4.43;;
8001;SDS011;4046;48.774;8.732;2022-07-15T06:15:50;7.60;;;4.57;;
8001;SDS011;4046;48.774;8.732;2022-07-15T06:18:16;6.10;;;4.43;;
8001;SDS011;4046;48.774;8.732;2022-07-15T06:20:42;4.87;;;4.47;;
8001;SDS011;4046;48.774;8.732;2022-07-15T06:23:08;4.60;;;4.23;;
8001;SDS011;4046;48.774;8.732;2022-07-15T06:25:34;4.70;;;4.30;;
8001;SDS011;4046;48.774;8.732;2022-07-15T06:27:59;5.10;;;4.70;;
8001;SDS011;4046;48.774;8.732;2022-07-15T06:30:26;4.40;;;4.10;;
8001;SDS011;4046;48.774;8.732;2022-07-15T06:32:52;4.33;;;3.93;;
8001;SDS011;4046;48.774;8.732;2022-07-15T06:35:18;4.90;;;4.50;;
8001;SDS011;4046;48.774;8.732;2022-07-15T06:37:44;5.47;;;4.97;;
8001;SDS011;4046;48.774;8.732;2022-07-15T06:40:10;5.67;;;4.20;;
8001;SDS011;4046;48.774;8.732;2022-07-15T06:42:36;8.57;;;4.70;;
8001;SDS011;4046;48.774;8.732;2022-07-15T06:45:04;4.20;;;3.90;;
8001;SDS011;4046;48.774;8.732;2022-07-15T06:47:31;5.00;;;4.60;;
8001;SDS011;4046;48.774;8.732;2022-07-15T06:49:56;4.40;;;4.10;;
8001;SDS011;4046;48.774;8.732;2022-07-15T06:52:22;4.60;;;4.00;;
8001;SDS011;4046;48.774;8.732;2022-07-15T06:54:48;4.20;;;3.80;;
8001;SDS011;4046;48.774;8.732;2022-07-15T06:57:14;4.53;;;4.07;;
8001;SDS011;4046;48.774;8.732;2022-07-15T06:59:43;4.33;;;3.83;;
8001;SDS011;4046;48.774;8.732;2022-07-15T07:02:09;3.80;;;3.50;;
8001;SDS011;4046;48.774;8.732;2022-07-15T07:04:34;4.80;;;4.37;;
8001;SDS011;4046;48.774;8.732;2022-07-15T07:07:00;7.60;;;3.77;;
8001;SDS011;4046;48.774;8.732;2022-07-15T07:09:26;3.97;;;3.47;;
8001;SDS011;4046;48.774;8.732;2022-07-15T07:11:52;5.93;;;4.23;;
8001;SDS011;4046;48.774;8.732;2022-07-15T07:14:18;4.07;;;3.67;;
8001;SDS011;4046;48.774;8.732;2022-07-15T07:16:44;8.17;;;3.50;;
8001;SDS011;4046;48.774;8.732;2022-07-15T07:19:11;5.87;;;4.07;;
8001;SDS011;4046;48.774;8.732;2022-07-15T07:21:38;4.07;;;3.67;;
8001;SDS011;4046;48.774;8.732;2022-07-15T07:24:05;3.93;;;3.10;;
8001;SDS011;4046;48.774;8.732;2022-07-15T07:26:32;8.00;;;3.40;;
8001;SDS011;4046;48.774;8.732;2022-07-15T07:28:58;4.10;;;3.10;;
8001;SDS011;4046;48.774;8.732;2022-07-15T07:31:24;4.03;;;3.30;;
8001;SDS011;4046;48.774;8.732;2022-07-15T07:33:53;5.33;;;2.80;;
8001;SDS011;4046;48.774;8.732;2022-07-15T07:36:20;3.63;;;2.43;;
8001;SDS011;4046;48.774;8.732;2022-07-15T07:38:46;3.00;;;2.53;;
8001;SDS011;4046;48.774;8.732;2022-07-15T07:41:12;2.50;;;2.10;;
8001;SDS011;4046;48.774;8.732;2022-07-15T07:43:38;2.90;;;2.50;;
8001;SDS011;4046;48.774;8.732;2022-07-15T07:46:04;2.60;;;2.40;;
8001;SDS011;4046;48.774;8.732;2022-07-15T07:48:30;3.03;;;2.00;;
8001;SDS011;4046;48.774;8.732;2022-07-15T07:50:57;2.47;;;2.20;;
8001;SDS011;4046;48.774;8.732;2022-07-15T07:53:23;2.50;;;2.30;;
8001;SDS011;4046;48.774;8.732;2022-07-15T07:55:49;3.10;;;2.63;;
8001;SDS011;4046;48.774;8.732;2022-07-15T07:58:15;4.10;;;2.30;;
8001;SDS011;4046;48.774;8.732;2022-07-15T08:00:42;3.07;;;2.27;;
8001;SDS011;4046;48.774;8.732;2022-07-15T08:03:09;2.97;;;2.73;;
8001;SDS011;4046;48.774;8.732;2022-07-15T08:05:35;2.83;;;2.23;;
8001;SDS011;4046;48.774;8.732;2022-07-15T08:08:14;3.50;;;2.37;;
8001;SDS011;4046;48.774;8.732;2022-07-15T08:10:45;5.83;;;2.43;;
8001;SDS011;4046;48.774;8.732;2022-07-15T08:13:13;2.10;;;1.90;;
8001;SDS011;4046;48.774;8.732;2022-07-15T08:15:40;3.97;;;2.47;;
8001;SDS011;4046;48.774;8.732;2022-07-15T08:18:07;2.77;;;2.40;;
8001;SDS011;4046;48.774;8.732;2022-07-15T08:20:33;2.80;;;2.40;;
8001;SDS011;4046;48.774;8.732;2022-07-15T08:23:00;3.20;;;2.10;;
8001;SDS011;4046;48.774;8.732;2022-07-15T08:25:27;2.70;;;2.50;;
8001;SDS011;4046;48.774;8.732;2022-07-15T08:27:54;3.20;;;2.43;;
8001;SDS011;4046;48.774;8.732;2022-07-15T08:30:22;2.43;;;2.23;;
8001;SDS011;4046;48.774;8.732;2022-07-15T08:32:48;2.50;;;2.30;;
8001;SDS011;4046;48.774;8.732;2022-07-15T08:35:14;2.73;;;2.10;;
8001;SDS011;4046;48.774;8.732;2022-07-15T08:37:40;3.17;;;2.47;;
8001;SDS011;4046;48.774;8.732;2022-07-15T08:40:09;6.00;;;2.63;;
8001;SDS011;4046;48.774;8.732;2022-07-15T08:42:39;3.27;;;2.27;;
8001;SDS011;4046;48.774;8.732;2022-07-15T08:45:07;2.47;;;2.27;;
8001;SDS011;4046;48.774;8.732;2022-07-15T08:47:33;3.50;;;3.20;;
8001;SDS011;4046;48.774;8.732;2022-07-15T08:50:03;3.80;;;2.97;;
8001;SDS011;4046;48.774;8.732;2022-07-15T08:52:32;4.23;;;2.53;;
8001;SDS011;4046;48.774;8.732;2022-07-15T08:54:59;2.63;;;2.40;;
8001;SDS011;4046;48.774;8.732;2022-07-15T08:57:25;2.73;;;2.40;;
8001;SDS011;4046;48.774;8.732;2022-07-15T08:59:51;4.00;;;2.60;;
8001;SDS011;4046;48.774;8.732;2022-07-15T09:02:18;4.43;;;2.70;;
8001;SDS011;4046;48.774;8.732;2022-07-15T09:10:43;3.80;;;2.47;;
8001;SDS011;4046;48.774;8.732;2022-07-15T09:16:04;3.03;;;2.83;;
8001;SDS011;4046;48.774;8.732;2022-07-15T09:18:35;3.77;;;3.03;;
8001;SDS011;4046;48.774;8.732;2022-07-15T09:23:43;2.50;;;2.30;;
8001;SDS011;4046;48.774;8.732;2022-07-15T09:26:23;5.60;;;2.63;;
8001;SDS011;4046;48.774;8.732;2022-07-15T09:28:58;2.53;;;2.33;;
8001;SDS011;4046;48.774;8.732;2022-07-15T09:34:15;3.23;;;2.47;;
8001;SDS011;4046;48.774;8.732;2022-07-15T09:36:46;2.53;;;2.33;;
8001;SDS011;4046;48.774;8.732;2022-07-15T09:39:18;4.90;;;2.83;;
8001;SDS011;4046;48.774;8.732;2022-07-15T09:41:45;7.20;;;2.60;;
8001;SDS011;4046;48.774;8.732;2022-07-15T09:44:13;3.53;;;2.63;;
8001;SDS011;4046;48.774;8.732;2022-07-15T09:46:40;4.80;;;2.27;;
8001;SDS011;4046;48.774;8.732;2022-07-15T09:51:54;2.93;;;2.57;;
8001;SDS011;4046;48.774;8.732;2022-07-15T09:54:22;2.90;;;2.27;;
8001;SDS011;4046;48.774;8.732;2022-07-15T09:56:49;3.20;;;2.90;;
8001;SDS011;4046;48.774;8.732;2022-07-15T09:59:16;4.53;;;2.50;;
8001;SDS011;4046;48.774;8.732;2022-07-15T10:01:43;5.07;;;2.47;;
8001;SDS011;4046;48.774;8.732;2022-07-15T10:04:10;3.07;;;2.50;;
8001;SDS011;4046;48.774;8.732;2022-07-15T10:06:36;2.93;;;2.70;;
8001;SDS011;4046;48.774;8.732;2022-07-15T10:09:07;4.10;;;2.63;;
8001;SDS011;4046;48.774;8.732;2022-07-15T10:11:37;2.90;;;2.63;;
8001;SDS011;4046;48.774;8.732;2022-07-15T10:22:35;3.03;;;2.40;;
8001;SDS011;4046;48.774;8.732;2022-07-15T10:30:23;9.53;;;3.53;;
8001;SDS011;4046;48.774;8.732;2022-07-15T10:41:01;3.20;;;3.00;;
8001;SDS011;4046;48.774;8.732;2022-07-15T10:43:46;4.17;;;3.13;;
8001;SDS011;4046;48.774;8.732;2022-07-15T10:48:50;3.17;;;2.70;;
8001;SDS011;4046;48.774;8.732;2022-07-15T10:56:36;6.27;;;2.70;;
8001;SDS011;4046;48.774;8.732;2022-07-15T11:01:49;3.10;;;2.70;;
8001;SDS011;4046;48.774;8.732;2022-07-15T11:04:25;3.20;;;2.70;;
8001;SDS011;4046;48.774;8.732;2022-07-15T11:12:19;3.93;;;3.20;;
8001;SDS011;4046;48.774;8.732;2022-07-15T11:15:12;8.17;;;2.90;;
8001;SDS011;4046;48.774;8.732;2022-07-15T11:17:40;8.63;;;3.57;;
8001;SDS011;4046;48.774;8.732;2022-07-15T11:20:12;4.87;;;3.13;;
8001;SDS011;4046;48.774;8.732;2022-07-15T11:22:44;2.70;;;2.50;;
8001;SDS011;4046;48.774;8.732;2022-07-15T11:25:18;3.03;;;2.73;;
8001;SDS011;4046;48.774;8.732;2022-07-15T11:30:28;3.40;;;3.03;;
8001;SDS011;4046;48.774;8.732;2022-07-15T11:32:58;5.30;;;2.97;;
8001;SDS011;4046;48.774;8.732;2022-07-15T11:35:25;8.40;;;2.67;;
8001;SDS011;4046;48.774;8.732;2022-07-15T11:38:00;3.27;;;2.73;;
8001;SDS011;4046;48.774;8.732;2022-07-15T11:40:27;2.83;;;2.63;;
8001;SDS011;4046;48.774;8.732;2022-07-15T11:43:14;3.20;;;2.90;;
8001;SDS011;4046;48.774;8.732;2022-07-15T11:46:01;3.97;;;2.90;;
8001;SDS011;4046;48.774;8.732;2022-07-15T11:48:27;2.80;;;2.30;;
8001;SDS011;4046;48.774;8.732;2022-07-15T11:50:59;3.17;;;2.83;;
8001;SDS011;4046;48.774;8.732;2022-07-15T11:53:25;3.47;;;2.90;;
8001;SDS011;4046;48.774;8.732;2022-07-15T11:55:55;3.57;;;3.27;;
8001;SDS011;4046;48.774;8.732;2022-07-15T11:58:26;3.13;;;2.93;;
8001;SDS011;4046;48.774;8.732;2022-07-15T12:00:57;2.70;;;2.47;;
8001;SDS011;4046;48.774;8.732;2022-07-15T12:03:29;3.00;;;2.50;;
8001;SDS011;4046;48.774;8.732;2022-07-15T12:06:00;5.53;;;2.90;;
8001;SDS011;4046;48.774;8.732;2022-07-15T12:08:44;6.43;;;3.20;;
8001;SDS011;4046;48.774;8.732;2022-07-15T12:11:10;2.97;;;2.73;;
8001;SDS011;4046;48.774;8.732;2022-07-15T12:13:51;4.47;;;2.90;;
8001;SDS011;4046;48.774;8.732;2022-07-15T12:16:30;3.50;;;2.90;;
8001;SDS011;4046;48.774;8.732;2022-07-15T12:21:47;7.73;;;3.70;;
8001;SDS011;4046;48.774;8.732;2022-07-15T12:24:17;4.20;;;3.00;;
8001;SDS011;4046;48.774;8.732;2022-07-15T12:29:17;7.07;;;3.30;;
8001;SDS011;4046;48.774;8.732;2022-07-15T12:31:51;4.80;;;2.67;;
8001;SDS011;4046;48.774;8.732;2022-07-15T12:34:16;3.60;;;3.30;;
8001;SDS011;4046;48.774;8.732;2022-07-15T12:36:42;3.10;;;2.90;;
8001;SDS011;4046;48.774;8.732;2022-07-15T12:41:39;2.97;;;2.77;;
8001;SDS011;4046;48.774;8.732;2022-07-15T12:44:06;5.77;;;2.83;;
8001;SDS011;4046;48.774;8.732;2022-07-15T12:49:39;2.90;;;2.70;;
8001;SDS011;4046;48.774;8.732;2022-07-15T12:52:18;8.30;;;3.07;;
8001;SDS011;4046;48.774;8.732;2022-07-15T12:54:47;6.37;;;3.60;;
8001;SDS011;4046;48.774;8.732;2022-07-15T12:57:27;2.87;;;2.67;;
8001;SDS011;4046;48.774;8.732;2022-07-15T13:02:22;3.40;;;2.70;;
8001;SDS011;4046;48.774;8.732;2022-07-15T13:04:48;4.17;;;2.83;;
8001;SDS011;4046;48.774;8.732;2022-07-15T13:07:15;3.90;;;3.10;;
8001;SDS011;4046;48.774;8.732;2022-07-15T13:09:42;4.40;;;2.60;;
8001;SDS011;4046;48.774;8.732;2022-07-15T13:12:09;3.23;;;2.53;;
8001;SDS011;4046;48.774;8.732;2022-07-15T13:14:38;4.60;;;2.90;;
8001;SDS011;4046;48.774;8.732;2022-07-15T13:17:05;11.77;;;2.93;;
8001;SDS011;4046;48.774;8.732;2022-07-15T13:19:32;5.83;;;3.13;;
8001;SDS011;4046;48.774;8.732;2022-07-15T13:21:58;4.77;;;3.37;;
8001;SDS011;4046;48.774;8.732;2022-07-15T13:24:25;9.20;;;3.43;;
8001;SDS011;4046;48.774;8.732;2022-07-15T13:26:51;6.50;;;3.23;;
8001;SDS011;4046;48.774;8.732;2022-07-15T13:29:17;3.63;;;2.90;;
8001;SDS011;4046;48.774;8.732;2022-07-15T13:31:43;4.23;;;2.70;;
8001;SDS011;4046;48.774;8.732;2022-07-15T13:34:09;5.30;;;2.80;;
8001;SDS011;4046;48.774;8.732;2022-07-15T13:36:35;3.40;;;3.10;;
8001;SDS011;4046;48.774;8.732;2022-07-15T13:39:02;5.63;;;3.30;;
8001;SDS011;4046;48.774;8.732;2022-07-15T13:41:27;5.63;;;3.00;;
8001;SDS011;4046;48.774;8.732;2022-07-15T13:43:53;3.33;;;3.07;;
8001;SDS011;4046;48.774;8.732;2022-07-15T13:46:19;3.03;;;2.73;;
8001;SDS011;4046;48.774;8.732;2022-07-15T13:48:45;3.43;;;3.13;;
8001;SDS011;4046;48.774;8.732;2022-07-15T13:51:10;4.33;;;2.87;;
8001;SDS011;4046;48.774;8.732;2022-07-15T13:53:49;4.07;;;2.90;;
8001;SDS011;4046;48.774;8.732;2022-07-15T13:56:16;7.27;;;2.90;;
8001;SDS011;4046;48.774;8.732;2022-07-15T13:58:42;3.70;;;3.10;;
8001;SDS011;4046;48.774;8.732;2022-07-15T14:01:07;3.83;;;3.30;;
8001;SDS011;4046;48.774;8.732;2022-07-15T14:03:33;3.47;;;3.17;;
8001;SDS011;4046;48.774;8.732;2022-07-15T14:05:59;4.87;;;3.07;;
8001;SDS011;4046;48.774;8.732;2022-07-15T14:08:25;5.63;;;2.97;;
8001;SDS011;4046;48.774;8.732;2022-07-15T14:10:50;4.33;;;3.40;;
8001;SDS011;4046;48.774;8.732;2022-07-15T14:13:16;3.27;;;2.53;;
8001;SDS011;4046;48.774;8.732;2022-07-15T14:15:42;9.27;;;3.07;;
8001;SDS011;4046;48.774;8.732;2022-07-15T14:18:07;3.43;;;3.03;;
8001;SDS011;4046;48.774;8.732;2022-07-15T14:20:34;3.20;;;2.60;;
8001;SDS011;4046;48.774;8.732;2022-07-15T14:23:00;3.10;;;2.80;;
8001;SDS011;4046;48.774;8.732;2022-07-15T14:25:26;4.90;;;3.07;;
8001;SDS011;4046;48.774;8.732;2022-07-15T14:27:52;3.30;;;3.00;;
8001;SDS011;4046;48.774;8.732;2022-07-15T14:30:18;3.40;;;3.10;;
8001;SDS011;4046;48.774;8.732;2022-07-15T14:32:44;7.70;;;2.80;;
8001;SDS011;4046;48.774;8.732;2022-07-15T14:35:10;4.17;;;3.10;;
8001;SDS011;4046;48.774;8.732;2022-07-15T14:37:36;3.20;;;3.00;;
8001;SDS011;4046;48.774;8.732;2022-07-15T14:40:03;3.33;;;3.03;;
8001;SDS011;4046;48.774;8.732;2022-07-15T14:42:30;3.50;;;3.20;;
8001;SDS011;4046;48.774;8.732;2022-07-15T14:44:57;2.73;;;2.53;;
8001;SDS011;4046;48.774;8.732;2022-07-15T14:47:23;5.93;;;3.47;;
8001;SDS011;4046;48.774;8.732;2022-07-15T14:49:49;2.87;;;2.67;;
8001;SDS011;4046;48.774;8.732;2022-07-15T14:52:15;4.10;;;3.03;;
8001;SDS011;4046;48.774;8.732;2022-07-15T14:54:41;4.43;;;2.90;;
8001;SDS011;4046;48.774;8.732;2022-07-15T14:57:06;3.13;;;2.90;;
8001;SDS011;4046;48.774;8.732;2022-07-15T14:59:32;4.57;;;2.80;;
8001;SDS011;4046;48.774;8.732;2022-07-15T15:02:05;7.80;;;3.70;;
8001;SDS011;4046;48.774;8.732;2022-07-15T15:04:32;7.13;;;3.77;;
8001;SDS011;4046;48.774;8.732;2022-07-15T15:06:58;11.47;;;4.13;;
8001;SDS011;4046;48.774;8.732;2022-07-15T15:09:24;3.50;;;3.20;;
8001;SDS011;4046;48.774;8.732;2022-07-15T15:11:50;4.43;;;2.57;;
8001;SDS011;4046;48.774;8.732;2022-07-15T15:14:16;3.70;;;3.27;;
8001;SDS011;4046;48.774;8.732;2022-07-15T15:16:42;13.23;;;3.90;;
8001;SDS011;4046;48.774;8.732;2022-07-15T15:19:07;7.40;;;3.17;;
8001;SDS011;4046;48.774;8.732;2022-07-15T15:21:33;9.03;;;3.50;;
8001;SDS011;4046;48.774;8.732;2022-07-15T15:24:00;2.97;;;2.67;;
8001;SDS011;4046;48.774;8.732;2022-07-15T15:26:26;4.33;;;3.07;;
8001;SDS011;4046;48.774;8.732;2022-07-15T15:28:55;3.30;;;2.60;;
8001;SDS011;4046;48.774;8.732;2022-07-15T15:31:22;3.53;;;2.57;;
8001;SDS011;4046;48.774;8.732;2022-07-15T15:33:50;3.33;;;3.10;;
8001;SDS011;4046;48.774;8.732;2022-07-15T15:36:16;3.33;;;3.03;;
8001;SDS011;4046;48.774;8.732;2022-07-15T15:38:42;3.67;;;2.70;;
8001;SDS011;4046;48.774;8.732;2022-07-15T15:41:08;3.10;;;2.67;;
8001;SDS011;4046;48.774;8.732;2022-07-15T15:43:34;4.23;;;3.10;;
8001;SDS011;4046;48.774;8.732;2022-07-15T15:46:00;3.77;;;3.10;;
8001;SDS011;4046;48.774;8.732;2022-07-15T15:48:26;2.80;;;2.60;;
8001;SDS011;4046;48.774;8.732;2022-07-15T15:50:52;7.17;;;3.00;;
8001;SDS011;4046;48.774;8.732;2022-07-15T15:53:18;3.30;;;3.00;;
8001;SDS011;4046;48.774;8.732;2022-07-15T15:55:45;3.07;;;2.80;;
8001;SDS011;4046;48.774;8.732;2022-07-15T15:58:10;6.97;;;3.03;;
8001;SDS011;4046;48.774;8.732;2022-07-15T16:00:36;4.50;;;3.17;;
8001;SDS011;4046;48.774;8.732;2022-07-15T16:03:02;3.27;;;2.97;;
8001;SDS011;4046;48.774;8.732;2022-07-15T16:05:28;3.30;;;3.00;;
8001;SDS011;4046;48.774;8.732;2022-07-15T16:07:54;3.93;;;2.90;;
8001;SDS011;4046;48.774;8.732;2022-07-15T16:10:20;3.50;;;3.20;;
8001;SDS011;4046;48.774;8.732;2022-07-15T16:12:46;3.60;;;2.90;;
8001;SDS011;4046;48.774;8.732;2022-07-15T16:15:11;4.07;;;2.63;;
8001;SDS011;4046;48.774;8.732;2022-07-15T16:17:38;3.67;;;3.37;;
8001;SDS011;4046;48.774;8.732;2022-07-15T16:20:04;7.30;;;3.10;;
8001;SDS011;4046;48.774;8.732;2022-07-15T16:22:31;3.10;;;2.80;;
8001;SDS011;4046;48.774;8.732;2022-07-15T16:25:15;3.50;;;3.20;;
8001;SDS011;4046;48.774;8.732;2022-07-15T16:27:41;7.40;;;5.80;;